createdAt,value
2018-06-10T04:10:22.808Z,10
2018-06-10T04:10:48.314Z,10
2018-06-10T04:11:13.788Z,10
2018-06-10T04:11:39.269Z,10
2018-06-10T04:12:04.768Z,10
2018-06-10T04:12:30.280Z,10
2018-06-10T04:12:55.845Z,10
2018-06-10T04:13:21.345Z,10
2018-06-10T04:13:46.859Z,10
2018-06-10T04:14:12.368Z,10
2018-06-10T04:14:37.893Z,10
2018-06-10T04:15:03.368Z,10
2018-06-10T04:15:28.870Z,10
2018-06-10T04:15:54.359Z,10
2018-06-10T04:16:19.869Z,10
2018-06-10T04:16:45.330Z,10
2018-06-10T04:17:10.816Z,10
2018-06-10T04:17:36.337Z,15
2018-06-10T04:18:01.830Z,15
2018-06-10T04:18:27.350Z,15
2018-06-10T04:18:52.861Z,15
2018-06-10T04:19:18.352Z,15
2018-06-10T04:19:43.825Z,15
2018-06-10T04:20:09.355Z,15
2018-06-10T04:20:34.849Z,15
2018-06-10T04:21:00.343Z,15
2018-06-10T04:21:25.890Z,15
2018-06-10T04:22:50.882Z,15
2018-06-10T04:23:16.379Z,15
2018-06-10T04:23:41.879Z,15
2018-06-10T04:24:07.365Z,15
2018-06-10T04:24:32.852Z,15
2018-06-10T04:24:58.334Z,15
2018-06-10T04:25:23.858Z,15
2018-06-10T04:25:49.366Z,20
2018-06-10T04:26:14.836Z,20
2018-06-10T04:26:40.357Z,20
2018-06-10T04:27:05.832Z,20
2018-06-10T04:27:31.365Z,20
2018-06-10T04:27:56.875Z,20
2018-06-10T04:28:22.358Z,20
2018-06-10T04:29:36.175Z,20
2018-06-10T04:30:01.682Z,20
2018-06-10T04:30:27.185Z,20
2018-06-10T04:30:52.685Z,20
2018-06-10T04:31:18.179Z,20
2018-06-10T04:31:43.691Z,25
2018-06-10T04:32:09.169Z,25
2018-06-10T04:32:34.648Z,25
2018-06-10T04:33:00.171Z,25
2018-06-10T04:33:25.645Z,25
2018-06-10T04:33:51.158Z,25
2018-06-10T04:34:16.637Z,25
2018-06-10T04:34:42.115Z,25
2018-06-10T04:35:07.614Z,25
2018-06-10T04:35:33.103Z,30
2018-06-10T04:35:58.616Z,25
2018-06-10T04:36:24.107Z,25
2018-06-10T04:36:49.602Z,30
2018-06-10T04:37:15.108Z,30
2018-06-10T04:37:40.641Z,30
2018-06-10T04:38:06.172Z,30
2018-06-10T04:38:31.678Z,35
2018-06-10T04:38:57.156Z,35
2018-06-10T04:39:22.646Z,35
2018-06-10T04:39:48.188Z,35
2018-06-10T04:40:13.682Z,35
2018-06-10T04:40:39.178Z,40
2018-06-10T04:41:04.618Z,40
2018-06-10T04:41:30.106Z,40
2018-06-10T04:41:55.611Z,40
2018-06-10T04:42:21.101Z,40
2018-06-10T04:42:46.622Z,45
2018-06-10T04:43:12.130Z,45
2018-06-10T04:43:37.624Z,45
2018-06-10T04:44:03.143Z,45
2018-06-10T04:44:28.617Z,45
2018-06-10T04:44:54.132Z,45
2018-06-10T04:45:19.608Z,50
2018-06-10T04:45:45.101Z,50
2018-06-10T04:46:10.606Z,50
2018-06-10T04:46:36.125Z,50
2018-06-10T04:47:01.669Z,50
2018-06-10T04:47:27.146Z,50
2018-06-10T04:47:52.650Z,50
2018-06-10T04:48:18.150Z,50
2018-06-10T04:48:43.635Z,50
2018-06-10T04:49:09.149Z,50
2018-06-10T04:49:34.645Z,55
2018-06-10T04:50:00.132Z,55
2018-06-10T04:50:25.632Z,55
2018-06-10T04:50:51.091Z,55
2018-06-10T04:51:16.587Z,55
2018-06-10T04:51:42.093Z,55
2018-06-10T04:52:07.586Z,55
2018-06-10T04:52:33.082Z,55
2018-06-10T04:52:58.649Z,60
2018-06-10T04:53:24.092Z,60
2018-06-10T04:53:49.657Z,60
2018-06-10T04:54:15.152Z,60
2018-06-10T04:54:40.646Z,60
2018-06-10T04:55:06.144Z,60
2018-06-10T04:56:25.087Z,55
2018-06-10T04:56:50.587Z,50
2018-06-10T04:57:16.073Z,50
2018-06-10T04:57:41.560Z,50
2018-06-10T04:58:07.029Z,50
2018-06-10T04:58:32.576Z,55
2018-06-10T04:58:58.052Z,55
2018-06-10T04:59:23.582Z,55
2018-06-10T04:59:49.081Z,55
2018-06-10T05:00:14.567Z,55
2018-06-10T05:00:40.054Z,55
2018-06-10T05:01:05.517Z,45
2018-06-10T05:01:31.021Z,40
2018-06-10T05:01:56.526Z,40
2018-06-10T05:02:22.009Z,35
2018-06-10T05:02:47.523Z,35
2018-06-10T05:03:13.030Z,35
2018-06-10T05:03:38.522Z,40
2018-06-10T05:04:04.014Z,45
2018-06-10T05:05:17.824Z,60
2018-06-10T05:05:43.329Z,65
2018-06-10T05:06:08.845Z,70
2018-06-10T05:06:34.311Z,70
2018-06-10T05:06:59.787Z,75
2018-06-10T05:07:25.281Z,75
2018-06-10T05:07:50.756Z,75
2018-06-10T05:08:16.237Z,75
2018-06-10T05:08:41.679Z,80
2018-06-10T05:09:50.364Z,80
2018-06-10T05:10:15.883Z,80
2018-06-10T05:10:41.387Z,80
2018-06-10T05:11:06.855Z,80
2018-06-10T05:11:32.346Z,80
2018-06-10T05:11:57.834Z,80
2018-06-10T05:12:23.321Z,80
2018-06-10T05:12:48.808Z,80
2018-06-10T05:13:14.320Z,80
2018-06-10T05:13:39.853Z,80
2018-06-10T05:14:05.328Z,80
2018-06-10T05:14:30.841Z,80
2018-06-10T05:14:56.382Z,80
2018-06-10T05:15:21.899Z,80
2018-06-10T05:15:47.372Z,80
2018-06-10T05:16:12.859Z,75
2018-06-10T05:16:38.377Z,75
2018-06-10T05:17:03.878Z,75
2018-06-10T05:17:29.357Z,75
2018-06-10T05:17:54.866Z,70
2018-06-10T05:18:20.403Z,70
2018-06-10T05:18:45.900Z,70
2018-06-10T05:19:11.422Z,70
2018-06-10T05:19:36.968Z,70
2018-06-10T05:20:02.536Z,70
2018-06-10T05:20:27.920Z,70
2018-06-10T05:20:53.430Z,70
2018-06-10T05:21:18.910Z,70
2018-06-10T05:21:44.394Z,70
2018-06-10T05:23:13.481Z,70
2018-06-10T05:23:38.989Z,70
2018-06-10T05:24:04.492Z,70
2018-06-10T05:24:29.992Z,70
2018-06-10T05:24:55.469Z,70
2018-06-10T05:25:20.963Z,70
2018-06-10T05:25:46.447Z,70
2018-06-10T05:27:15.529Z,70
2018-06-10T05:27:41.029Z,70
2018-06-10T05:28:06.524Z,70
2018-06-10T05:28:32.003Z,70
2018-06-10T05:28:57.497Z,70
2018-06-10T05:29:22.970Z,75
2018-06-10T05:29:48.455Z,75
2018-06-10T05:30:13.974Z,75
2018-06-10T05:30:39.472Z,75
2018-06-10T05:31:05.008Z,75
2018-06-10T05:31:30.511Z,80
2018-06-10T05:31:55.990Z,80
2018-06-10T05:32:21.510Z,80
2018-06-10T05:32:47.019Z,80
2018-06-10T05:33:12.498Z,80
2018-06-10T05:33:38.005Z,85
2018-06-10T05:34:03.483Z,85
2018-06-10T05:34:28.970Z,85
2018-06-10T05:34:54.475Z,85
2018-06-10T05:35:19.972Z,85
2018-06-10T05:35:45.461Z,85
2018-06-10T05:36:10.928Z,85
2018-06-10T05:36:36.433Z,85
2018-06-10T05:38:00.462Z,85
2018-06-10T05:38:25.960Z,85
2018-06-10T05:38:51.460Z,90
2018-06-10T05:39:16.933Z,90
2018-06-10T05:39:42.450Z,90
2018-06-10T05:40:07.982Z,90
2018-06-10T05:40:33.425Z,95
2018-06-10T05:40:58.926Z,95
2018-06-10T05:41:24.420Z,95
2018-06-10T05:41:49.951Z,100
2018-06-10T05:42:15.409Z,100
2018-06-10T05:42:40.916Z,100
2018-06-10T05:43:06.427Z,100
2018-06-10T05:43:31.899Z,100
2018-06-10T05:43:57.398Z,105
2018-06-10T05:44:22.895Z,105
2018-06-10T05:44:48.395Z,105
2018-06-10T05:45:13.882Z,105
2018-06-10T05:45:39.380Z,105
2018-06-10T05:46:04.892Z,110
2018-06-10T05:46:30.360Z,110
2018-06-10T05:46:55.831Z,110
2018-06-10T05:47:21.335Z,110
2018-06-10T05:47:46.814Z,110
2018-06-10T05:48:12.309Z,105
2018-06-10T05:48:37.829Z,105
2018-06-10T05:49:03.329Z,105
2018-06-10T05:49:28.817Z,105
2018-06-10T05:49:54.299Z,105
2018-06-10T05:50:19.787Z,100
2018-06-10T05:50:45.268Z,100
2018-06-10T05:51:10.787Z,100
2018-06-10T05:51:36.304Z,100
2018-06-10T05:52:01.754Z,100
2018-06-10T05:52:27.246Z,100
2018-06-10T05:52:52.731Z,100
2018-06-10T05:53:18.251Z,95
2018-06-10T05:53:43.786Z,95
2018-06-10T05:54:09.258Z,95
2018-06-10T05:54:34.782Z,95
2018-06-10T05:55:00.288Z,95
2018-06-10T05:55:25.803Z,95
2018-06-10T05:55:51.284Z,90
2018-06-10T05:56:16.771Z,90
2018-06-10T05:56:42.249Z,90
2018-06-10T05:57:07.746Z,85
2018-06-10T05:57:33.268Z,85
2018-06-10T05:57:58.810Z,85
2018-06-10T05:58:24.308Z,85
2018-06-10T05:58:49.836Z,85
2018-06-10T05:59:15.322Z,85
2018-06-10T05:59:40.799Z,85
2018-06-10T06:00:06.308Z,85
2018-06-10T06:00:31.821Z,85
2018-06-10T06:00:57.342Z,85
2018-06-10T06:01:22.833Z,85
2018-06-10T06:01:48.319Z,90
2018-06-10T06:02:13.822Z,90
2018-06-10T06:02:39.322Z,90
2018-06-10T06:03:04.811Z,90
2018-06-10T06:03:30.290Z,90
2018-06-10T06:03:55.788Z,90
2018-06-10T06:04:21.308Z,95
2018-06-10T06:04:46.806Z,95
2018-06-10T06:05:12.286Z,95
2018-06-10T06:05:37.743Z,95
2018-06-10T06:06:03.247Z,95
2018-06-10T06:06:28.737Z,100
2018-06-10T06:06:54.216Z,100
2018-06-10T06:07:19.681Z,100
2018-06-10T06:07:45.170Z,105
2018-06-10T06:08:10.651Z,105
2018-06-10T06:08:36.110Z,105
2018-06-10T06:09:01.583Z,110
2018-06-10T06:09:27.084Z,110
2018-06-10T06:09:52.582Z,110
2018-06-10T06:10:18.064Z,110
2018-06-10T06:10:43.562Z,115
2018-06-10T06:11:09.071Z,115
2018-06-10T06:11:34.564Z,115
2018-06-10T06:12:00.070Z,115
2018-06-10T06:12:25.571Z,115
2018-06-10T06:12:51.048Z,115
2018-06-10T06:13:59.764Z,115
2018-06-10T06:14:25.268Z,115
2018-06-10T06:14:50.762Z,115
2018-06-10T06:15:16.282Z,115
2018-06-10T06:15:41.786Z,115
2018-06-10T06:16:07.260Z,115
2018-06-10T06:16:32.749Z,115
2018-06-10T06:16:58.249Z,115
2018-06-10T06:17:23.754Z,110
2018-06-10T06:17:49.258Z,110
2018-06-10T06:18:14.761Z,110
2018-06-10T06:18:40.272Z,110
2018-06-10T06:19:05.761Z,110
2018-06-10T06:19:31.286Z,110
2018-06-10T06:19:56.742Z,110
2018-06-10T06:20:22.220Z,110
2018-06-10T06:20:47.735Z,110
2018-06-10T06:21:13.187Z,105
2018-06-10T06:21:38.688Z,105
2018-06-10T06:22:04.214Z,105
2018-06-10T06:22:29.724Z,105
2018-06-10T06:22:55.185Z,100
2018-06-10T06:23:20.683Z,100
2018-06-10T06:23:46.162Z,95
2018-06-10T06:24:11.668Z,95
2018-06-10T06:24:37.204Z,95
2018-06-10T06:25:02.690Z,90
2018-06-10T06:25:28.206Z,90
2018-06-10T06:25:53.759Z,85
2018-06-10T06:26:19.257Z,85
2018-06-10T06:26:44.785Z,85
2018-06-10T06:27:10.617Z,80
2018-06-10T06:27:36.323Z,80
2018-06-10T06:29:06.319Z,80
2018-06-10T06:29:31.822Z,80
2018-06-10T06:29:57.320Z,85
2018-06-10T06:30:22.854Z,80
2018-06-10T06:30:48.352Z,85
2018-06-10T06:31:13.934Z,85
2018-06-10T06:31:39.411Z,80
2018-06-10T06:32:04.924Z,85
2018-06-10T06:32:30.448Z,85
2018-06-10T06:33:49.393Z,85
2018-06-10T06:34:14.954Z,85
2018-06-10T06:34:40.387Z,85
2018-06-10T06:35:05.940Z,85
2018-06-10T06:35:31.530Z,85
2018-06-10T06:35:57.017Z,85
2018-06-10T06:36:22.530Z,85
2018-06-10T06:36:48.026Z,85
2018-06-10T06:37:13.507Z,85
2018-06-10T06:37:38.989Z,85
2018-06-10T06:38:04.511Z,90
2018-06-10T06:38:29.975Z,90
2018-06-10T06:38:55.503Z,90
2018-06-10T06:39:21.062Z,90
2018-06-10T06:39:46.531Z,95
2018-06-10T06:40:12.053Z,95
2018-06-10T06:40:37.557Z,95
2018-06-10T06:41:03.062Z,100
2018-06-10T06:41:28.547Z,100
2018-06-10T06:41:54.033Z,100
2018-06-10T06:42:19.549Z,105
2018-06-10T06:42:45.061Z,105
2018-06-10T06:43:10.554Z,105
2018-06-10T06:43:36.054Z,110
2018-06-10T06:44:01.567Z,110
2018-06-10T06:44:27.063Z,110
2018-06-10T06:44:52.551Z,115
2018-06-10T06:45:18.045Z,115
2018-06-10T06:45:43.550Z,115
2018-06-10T06:46:09.048Z,120
2018-06-10T06:46:34.532Z,120
2018-06-10T06:47:00.049Z,120
2018-06-10T06:47:25.551Z,125
2018-06-10T06:47:51.057Z,125
2018-06-10T06:48:16.553Z,125
2018-06-10T06:48:42.030Z,130
2018-06-10T06:49:07.522Z,130
2018-06-10T06:49:33.008Z,130
2018-06-10T06:49:58.510Z,130
2018-06-10T06:50:24.006Z,130
2018-06-10T06:50:49.502Z,130
2018-06-10T06:51:14.985Z,130
2018-06-10T06:51:40.471Z,130
2018-06-10T06:52:05.955Z,130
2018-06-10T06:52:31.504Z,135
2018-06-10T06:52:56.997Z,135
2018-06-10T06:53:22.485Z,135
2018-06-10T06:53:48.000Z,140
2018-06-10T06:54:13.516Z,140
2018-06-10T06:54:39.002Z,140
2018-06-10T06:55:04.496Z,145
2018-06-10T06:55:30.007Z,150
2018-06-10T06:55:55.540Z,150
2018-06-10T06:56:21.043Z,155
2018-06-10T06:56:46.550Z,160
2018-06-10T06:57:12.031Z,160
2018-06-10T06:57:37.513Z,160
2018-06-10T06:58:03.047Z,165
2018-06-10T06:58:28.533Z,165
2018-06-10T06:58:54.030Z,170
2018-06-10T06:59:19.590Z,175
2018-06-10T06:59:45.139Z,185
2018-06-10T07:00:10.795Z,185
2018-06-10T07:00:36.253Z,190
2018-06-10T07:01:01.722Z,195
2018-06-10T07:01:27.238Z,200
2018-06-10T07:01:52.681Z,205
2018-06-10T07:02:18.244Z,210
2018-06-10T07:02:43.686Z,210
2018-06-10T07:03:09.186Z,215
2018-06-10T07:03:34.713Z,215
2018-06-10T07:04:00.225Z,220
2018-06-10T07:04:25.673Z,235
2018-06-10T07:04:51.133Z,240
2018-06-10T07:05:16.572Z,245
2018-06-10T07:05:42.121Z,235
2018-06-10T07:06:07.549Z,225
2018-06-10T07:06:33.036Z,225
2018-06-10T07:06:58.508Z,215
2018-06-10T07:07:24.010Z,225
2018-06-10T07:07:49.516Z,215
2018-06-10T07:08:14.995Z,210
2018-06-10T07:08:40.437Z,235
2018-06-10T07:09:05.894Z,250
2018-06-10T07:09:31.704Z,265
2018-06-10T07:09:57.196Z,275
2018-06-10T07:10:22.688Z,285
2018-06-10T07:10:48.163Z,295
2018-06-10T07:11:13.666Z,290
2018-06-10T07:11:39.162Z,285
2018-06-10T07:12:04.720Z,305
2018-06-10T07:12:30.258Z,305
2018-06-10T07:12:55.728Z,305
2018-06-10T07:13:21.211Z,315
2018-06-10T07:13:46.705Z,300
2018-06-10T07:14:12.197Z,305
2018-06-10T07:14:37.721Z,315
2018-06-10T07:15:03.238Z,325
2018-06-10T07:15:28.730Z,330
2018-06-10T07:15:54.233Z,330
2018-06-10T07:16:19.716Z,330
2018-06-10T07:16:45.237Z,340
2018-06-10T07:17:10.736Z,340
2018-06-10T07:17:36.217Z,340
2018-06-10T07:18:01.692Z,335
2018-06-10T07:18:27.184Z,330
2018-06-10T07:18:52.683Z,330
2018-06-10T07:19:18.226Z,335
2018-06-10T07:19:43.730Z,335
2018-06-10T07:20:09.246Z,340
2018-06-10T07:20:34.734Z,345
2018-06-10T07:21:00.265Z,335
2018-06-10T07:21:25.866Z,325
2018-06-10T07:21:51.282Z,315
2018-06-10T07:22:16.759Z,300
2018-06-10T07:23:30.608Z,280
2018-06-10T07:23:56.098Z,275
2018-06-10T07:24:21.594Z,260
2018-06-10T07:24:47.103Z,265
2018-06-10T07:25:12.600Z,300
2018-06-10T07:25:38.078Z,320
2018-06-10T07:26:03.580Z,325
2018-06-10T07:26:29.086Z,305
2018-06-10T07:26:54.564Z,285
2018-06-10T07:27:20.069Z,290
2018-06-10T07:27:45.548Z,300
2018-06-10T07:28:11.043Z,320
2018-06-10T07:28:36.565Z,325
2018-06-10T07:29:02.062Z,325
2018-06-10T07:29:27.542Z,315
2018-06-10T07:29:53.046Z,325
2018-06-10T07:30:18.550Z,340
2018-06-10T07:30:44.139Z,345
2018-06-10T07:31:09.643Z,345
2018-06-10T07:31:35.138Z,345
2018-06-10T07:32:00.622Z,335
2018-06-10T07:32:26.132Z,315
2018-06-10T07:32:51.658Z,300
2018-06-10T07:33:17.131Z,305
2018-06-10T07:33:42.634Z,315
2018-06-10T07:34:08.118Z,335
2018-06-10T07:34:33.624Z,335
2018-06-10T07:34:59.131Z,325
2018-06-10T07:35:24.638Z,315
2018-06-10T07:35:50.130Z,315
2018-06-10T07:36:15.637Z,310
2018-06-10T07:36:41.123Z,305
2018-06-10T07:37:06.694Z,295
2018-06-10T07:37:32.171Z,290
2018-06-10T07:37:57.679Z,290
2018-06-10T07:38:23.185Z,285
2018-06-10T07:38:48.684Z,290
2018-06-10T07:39:14.211Z,310
2018-06-10T07:39:39.716Z,325
2018-06-10T07:40:05.256Z,330
2018-06-10T07:40:30.851Z,325
2018-06-10T07:40:56.271Z,320
2018-06-10T07:41:21.809Z,305
2018-06-10T07:41:47.269Z,300
2018-06-10T07:42:12.840Z,305
2018-06-10T07:42:38.293Z,310
2018-06-10T07:43:03.810Z,305
2018-06-10T07:43:29.312Z,295
2018-06-10T07:43:54.810Z,285
2018-06-10T07:44:20.275Z,280
2018-06-10T07:44:45.781Z,280
2018-06-10T07:45:11.219Z,275
2018-06-10T07:45:36.691Z,260
2018-06-10T07:46:02.193Z,245
2018-06-10T07:46:27.691Z,240
2018-06-10T07:46:53.171Z,240
2018-06-10T07:47:18.691Z,240
2018-06-10T07:47:44.215Z,235
2018-06-10T07:48:09.696Z,220
2018-06-10T07:48:35.295Z,210
2018-06-10T07:49:00.769Z,210
2018-06-10T07:49:26.282Z,230
2018-06-10T07:49:51.774Z,255
2018-06-10T07:50:17.281Z,295
2018-06-10T07:50:42.786Z,325
2018-06-10T07:51:08.288Z,345
2018-06-10T07:51:33.809Z,370
2018-06-10T07:51:59.363Z,400
2018-06-10T07:52:24.801Z,415
2018-06-10T07:52:50.309Z,425
2018-06-10T07:53:15.782Z,425
2018-06-10T07:53:41.311Z,445
2018-06-10T07:54:06.783Z,445
2018-06-10T07:54:32.369Z,450
2018-06-10T07:54:57.733Z,450
2018-06-10T07:55:23.233Z,475
2018-06-10T07:55:48.660Z,470
2018-06-10T07:56:14.163Z,480
2018-06-10T07:56:39.742Z,480
2018-06-10T07:57:05.176Z,460
2018-06-10T07:58:19.016Z,455
2018-06-10T07:58:44.509Z,465
2018-06-10T07:59:10.008Z,460
2018-06-10T07:59:35.479Z,495
2018-06-10T08:00:01.037Z,485
2018-06-10T08:00:26.561Z,495
2018-06-10T08:00:52.043Z,495
2018-06-10T08:01:17.555Z,490
2018-06-10T08:01:43.104Z,480
2018-06-10T08:02:08.604Z,415
2018-06-10T08:02:34.134Z,415
2018-06-10T08:02:59.629Z,430
2018-06-10T08:03:25.134Z,440
2018-06-10T08:03:50.638Z,460
2018-06-10T08:04:16.164Z,440
2018-06-10T08:04:41.684Z,415
2018-06-10T08:05:07.188Z,395
2018-06-10T08:05:32.682Z,410
2018-06-10T08:05:58.183Z,435
2018-06-10T08:06:23.654Z,450
2018-06-10T08:06:49.193Z,450
2018-06-10T08:07:14.656Z,450
2018-06-10T08:07:40.167Z,440
2018-06-10T08:08:05.673Z,430
2018-06-10T08:08:31.201Z,435
2018-06-10T08:08:56.701Z,460
2018-06-10T08:09:22.200Z,455
2018-06-10T08:09:47.706Z,465
2018-06-10T08:10:13.208Z,465
2018-06-10T08:10:38.691Z,460
2018-06-10T08:11:04.178Z,480
2018-06-10T08:11:29.713Z,450
2018-06-10T08:11:55.283Z,440
2018-06-10T08:12:20.848Z,440
2018-06-10T08:12:46.342Z,455
2018-06-10T08:13:11.857Z,475
2018-06-10T08:13:37.383Z,490
2018-06-10T08:14:02.872Z,495
2018-06-10T08:14:28.343Z,500
2018-06-10T08:14:53.907Z,515
2018-06-10T08:15:19.449Z,540
2018-06-10T08:15:44.984Z,555
2018-06-10T08:16:10.510Z,540
2018-06-10T08:16:36.028Z,510
2018-06-10T08:17:01.533Z,485
2018-06-10T08:17:27.061Z,455
2018-06-10T08:17:52.588Z,445
2018-06-10T08:18:18.054Z,460
2018-06-10T08:18:43.840Z,465
2018-06-10T08:19:09.138Z,470
2018-06-10T08:19:34.661Z,480
2018-06-10T08:20:00.158Z,495
2018-06-10T08:20:25.670Z,505
2018-06-10T08:20:51.174Z,505
2018-06-10T08:21:16.650Z,505
2018-06-10T08:21:42.190Z,500
2018-06-10T08:22:07.680Z,485
2018-06-10T08:22:33.202Z,470
2018-06-10T08:22:58.692Z,465
2018-06-10T08:23:24.205Z,465
2018-06-10T08:23:49.673Z,480
2018-06-10T08:24:15.205Z,490
2018-06-10T08:24:40.710Z,510
2018-06-10T08:25:06.221Z,505
2018-06-10T08:25:31.756Z,500
2018-06-10T08:25:57.258Z,495
2018-06-10T08:26:22.769Z,490
2018-06-10T08:26:48.260Z,495
2018-06-10T08:27:13.741Z,495
2018-06-10T08:27:39.244Z,495
2018-06-10T08:28:04.747Z,475
2018-06-10T08:28:30.249Z,450
2018-06-10T08:28:55.744Z,440
2018-06-10T08:29:21.228Z,435
2018-06-10T08:29:46.741Z,425
2018-06-10T08:30:12.220Z,425
2018-06-10T08:30:37.728Z,425
2018-06-10T08:31:03.222Z,415
2018-06-10T08:31:28.715Z,415
2018-06-10T08:31:54.227Z,400
2018-06-10T08:32:19.729Z,395
2018-06-10T08:32:45.278Z,380
2018-06-10T08:33:10.765Z,380
2018-06-10T08:33:36.293Z,385
2018-06-10T08:34:01.819Z,385
2018-06-10T08:34:27.289Z,390
2018-06-10T08:34:52.792Z,410
2018-06-10T08:35:18.303Z,425
2018-06-10T08:35:43.793Z,430
2018-06-10T08:36:09.313Z,430
2018-06-10T08:37:18.087Z,450
2018-06-10T08:37:43.602Z,455
2018-06-10T08:38:09.117Z,455
2018-06-10T08:38:34.617Z,445
2018-06-10T08:39:00.154Z,435
2018-06-10T08:39:25.650Z,435
2018-06-10T08:39:51.168Z,445
2018-06-10T08:40:16.689Z,440
2018-06-10T08:40:42.194Z,435
2018-06-10T08:41:07.693Z,425
2018-06-10T08:41:33.164Z,410
2018-06-10T08:41:58.660Z,390
2018-06-10T08:42:24.160Z,380
2018-06-10T08:42:49.659Z,370
2018-06-10T08:43:15.157Z,370
2018-06-10T08:43:40.657Z,365
2018-06-10T08:44:06.126Z,360
2018-06-10T08:44:31.612Z,360
2018-06-10T08:44:57.154Z,360
2018-06-10T08:45:22.660Z,355
2018-06-10T08:45:48.186Z,345
2018-06-10T08:46:13.699Z,340
2018-06-10T08:46:39.204Z,340
2018-06-10T08:47:04.692Z,335
2018-06-10T08:47:30.210Z,340
2018-06-10T08:47:55.689Z,340
2018-06-10T08:48:21.183Z,345
2018-06-10T08:48:46.675Z,350
2018-06-10T08:49:12.141Z,350
2018-06-10T08:49:37.642Z,355
2018-06-10T08:50:03.196Z,360
2018-06-10T08:50:28.683Z,350
2018-06-10T08:50:54.189Z,345
2018-06-10T08:51:19.660Z,340
2018-06-10T08:51:45.164Z,335
2018-06-10T08:52:10.672Z,330
2018-06-10T08:52:36.167Z,330
2018-06-10T08:53:01.678Z,335
2018-06-10T08:54:20.654Z,345
2018-06-10T08:54:46.125Z,350
2018-06-10T08:55:11.640Z,350
2018-06-10T08:55:37.167Z,355
2018-06-10T08:56:02.654Z,350
2018-06-10T08:56:28.146Z,355
2018-06-10T08:56:53.682Z,350
2018-06-10T08:57:19.151Z,355
2018-06-10T08:57:44.627Z,355
2018-06-10T08:58:10.114Z,360
2018-06-10T08:58:35.594Z,360
2018-06-10T08:59:01.096Z,365
2018-06-10T08:59:26.620Z,370
2018-06-10T08:59:52.158Z,375
2018-06-10T09:00:17.646Z,380
2018-06-10T09:00:43.146Z,385
2018-06-10T09:01:08.632Z,390
2018-06-10T09:01:34.124Z,390
2018-06-10T09:01:59.611Z,395
2018-06-10T09:02:25.096Z,400
2018-06-10T09:02:50.670Z,410
2018-06-10T09:03:16.142Z,420
2018-06-10T09:03:41.644Z,430
2018-06-10T09:04:07.128Z,440
2018-06-10T09:04:32.648Z,450
2018-06-10T09:04:58.160Z,455
2018-06-10T09:05:23.666Z,455
2018-06-10T09:05:49.158Z,460
2018-06-10T09:06:14.641Z,460
2018-06-10T09:07:33.590Z,470
2018-06-10T09:07:59.105Z,480
2018-06-10T09:08:24.592Z,470
2018-06-10T09:08:50.117Z,470
2018-06-10T09:09:15.633Z,470
2018-06-10T09:09:41.155Z,475
2018-06-10T09:10:06.678Z,475
2018-06-10T09:10:32.175Z,480
2018-06-10T09:10:57.697Z,485
2018-06-10T09:11:23.182Z,485
2018-06-10T09:11:48.699Z,485
2018-06-10T09:12:14.205Z,490
2018-06-10T09:12:39.730Z,495
2018-06-10T09:13:05.291Z,495
2018-06-10T09:13:30.794Z,485
2018-06-10T09:13:56.265Z,480
2018-06-10T09:14:21.759Z,475
2018-06-10T09:14:47.227Z,465
2018-06-10T09:15:12.777Z,460
2018-06-10T09:15:38.250Z,460
2018-06-10T09:16:03.721Z,450
2018-06-10T09:16:29.195Z,445
2018-06-10T09:16:54.737Z,435
2018-06-10T09:17:20.254Z,425
2018-06-10T09:17:45.761Z,425
2018-06-10T09:18:11.299Z,425
2018-06-10T09:18:36.805Z,420
2018-06-10T09:19:02.330Z,425
2018-06-10T09:19:27.793Z,430
2018-06-10T09:19:53.297Z,450
2018-06-10T09:20:18.801Z,460
2018-06-10T09:20:44.282Z,465
2018-06-10T09:21:09.801Z,465
2018-06-10T09:21:35.313Z,460
2018-06-10T09:22:00.779Z,460
2018-06-10T09:22:26.286Z,465
2018-06-10T09:22:51.767Z,475
2018-06-10T09:23:17.314Z,490
2018-06-10T09:23:42.765Z,510
2018-06-10T09:24:08.278Z,525
2018-06-10T09:24:33.811Z,545
2018-06-10T09:24:59.303Z,550
2018-06-10T09:25:24.807Z,550
2018-06-10T09:25:50.335Z,535
2018-06-10T09:27:19.486Z,555
2018-06-10T09:27:44.976Z,590
2018-06-10T09:28:10.544Z,610
2018-06-10T09:28:36.058Z,635
2018-06-10T09:29:01.596Z,630
2018-06-10T09:29:27.123Z,600
2018-06-10T09:29:52.770Z,570
2018-06-10T09:30:18.271Z,550
2018-06-10T09:30:43.837Z,520
2018-06-10T09:31:09.604Z,495
2018-06-10T09:31:35.153Z,470
2018-06-10T09:32:00.806Z,435
2018-06-10T09:32:26.598Z,380
2018-06-10T09:32:52.087Z,365
2018-06-10T09:33:17.781Z,350
2018-06-10T09:33:43.504Z,335
2018-06-10T09:34:09.120Z,315
2018-06-10T09:34:34.706Z,295
2018-06-10T09:35:00.385Z,270
2018-06-10T09:35:25.932Z,250
2018-06-10T09:35:51.386Z,235
2018-06-10T09:36:16.904Z,235
2018-06-10T09:36:42.456Z,235
2018-06-10T09:37:08.472Z,245
2018-06-10T09:37:34.327Z,265
2018-06-10T09:37:59.871Z,285
2018-06-10T09:38:25.448Z,300
2018-06-10T09:38:50.987Z,315
2018-06-10T09:39:16.692Z,330
2018-06-10T09:39:42.320Z,345
2018-06-10T09:40:07.967Z,355
2018-06-10T09:40:33.499Z,370
2018-06-10T09:40:58.987Z,385
2018-06-10T09:41:24.534Z,400
2018-06-10T09:41:50.088Z,420
2018-06-10T09:42:15.585Z,445
2018-06-10T09:42:41.313Z,475
2018-06-10T09:43:06.865Z,510
2018-06-10T09:43:32.393Z,520
2018-06-10T09:43:57.977Z,520
2018-06-10T09:44:23.596Z,535
2018-06-10T09:44:49.253Z,555
2018-06-10T09:45:14.825Z,570
2018-06-10T09:45:40.466Z,570
2018-06-10T09:46:06.071Z,590
2018-06-10T09:46:31.675Z,575
2018-06-10T09:46:57.302Z,555
2018-06-10T09:47:23.126Z,550
2018-06-10T09:47:48.741Z,525
2018-06-10T09:48:14.652Z,495
2018-06-10T09:48:40.426Z,440
2018-06-10T09:49:06.159Z,420
2018-06-10T09:50:15.118Z,320
2018-06-10T09:50:40.592Z,275
2018-06-10T09:51:06.149Z,245
2018-06-10T09:51:31.868Z,225
2018-06-10T09:51:57.399Z,185
2018-06-10T09:52:22.910Z,160
2018-06-10T09:52:48.464Z,140
2018-06-10T09:53:14.004Z,135
2018-06-10T09:53:39.510Z,130
2018-06-10T09:54:05.023Z,135
2018-06-10T09:54:30.565Z,140
2018-06-10T09:54:56.123Z,145
2018-06-10T09:55:21.715Z,150
2018-06-10T09:55:47.205Z,155
2018-06-10T09:56:12.671Z,160
2018-06-10T09:56:38.153Z,170
2018-06-10T09:57:03.655Z,180
2018-06-10T09:58:12.367Z,230
2018-06-10T09:58:37.868Z,255
2018-06-10T09:59:03.532Z,270
2018-06-10T09:59:28.868Z,290
2018-06-10T09:59:54.433Z,305
2018-06-10T10:00:20.031Z,315
2018-06-10T10:00:45.464Z,325
2018-06-10T10:01:10.975Z,340
2018-06-10T10:01:36.421Z,360
2018-06-10T10:02:01.882Z,385
2018-06-10T10:02:27.359Z,405
2018-06-10T10:02:52.855Z,415
2018-06-10T10:03:18.307Z,430
2018-06-10T10:03:43.971Z,445
2018-06-10T10:04:09.559Z,460
2018-06-10T10:04:35.075Z,470
2018-06-10T10:05:00.565Z,480
2018-06-10T10:05:26.047Z,485
2018-06-10T10:05:51.532Z,490
2018-06-10T10:06:17.059Z,500
2018-06-10T10:06:42.506Z,505
2018-06-10T10:07:07.995Z,510
2018-06-10T10:07:33.492Z,510
2018-06-10T10:07:58.965Z,515
2018-06-10T10:08:24.457Z,510
2018-06-10T10:08:49.957Z,520
2018-06-10T10:09:15.445Z,525
2018-06-10T10:09:40.986Z,530
2018-06-10T10:10:06.478Z,535
2018-06-10T10:10:31.962Z,550
2018-06-10T10:10:57.508Z,555
2018-06-10T10:11:22.995Z,560
2018-06-10T10:11:48.495Z,565
2018-06-10T10:12:13.981Z,565
2018-06-10T10:12:39.505Z,560
2018-06-10T10:13:05.004Z,555
2018-06-10T10:13:30.523Z,560
2018-06-10T10:13:56.016Z,555
2018-06-10T10:14:21.576Z,555
2018-06-10T10:14:47.040Z,560
2018-06-10T10:15:12.537Z,560
2018-06-10T10:15:38.036Z,565
2018-06-10T10:16:03.533Z,565
2018-06-10T10:16:29.026Z,555
2018-06-10T10:16:54.561Z,525
2018-06-10T10:17:20.050Z,490
2018-06-10T10:17:45.527Z,460
2018-06-10T10:18:11.024Z,430
2018-06-10T10:18:36.559Z,410
2018-06-10T10:19:02.117Z,400
2018-06-10T10:19:27.608Z,405
2018-06-10T10:19:53.102Z,420
2018-06-10T10:20:18.597Z,430
2018-06-10T10:20:44.115Z,455
2018-06-10T10:21:09.625Z,485
2018-06-10T10:21:35.113Z,495
2018-06-10T10:22:00.623Z,515